createdAt,value
2018-08-03T00:00:48.410Z,22.70
2018-08-03T00:03:16.515Z,22.70
2018-08-03T00:05:44.894Z,22.70
2018-08-03T00:08:13.173Z,22.70
2018-08-03T00:10:41.496Z,22.70
2018-08-03T00:13:09.782Z,22.80
2018-08-03T00:15:38.005Z,22.90
2018-08-03T00:18:06.210Z,22.90
2018-08-03T00:20:34.420Z,22.90
2018-08-03T00:23:02.618Z,23.00
2018-08-03T00:25:30.801Z,23.00
2018-08-03T00:27:58.974Z,23.10
2018-08-03T00:30:27.220Z,23.10
2018-08-03T00:32:55.432Z,23.10
2018-08-03T00:35:23.648Z,23.10
2018-08-03T00:37:52.745Z,23.00
2018-08-03T00:40:21.345Z,23.00
2018-08-03T00:42:49.601Z,23.00
2018-08-03T00:45:17.807Z,22.90
2018-08-03T00:47:46.021Z,22.80
2018-08-03T00:50:14.240Z,22.70
2018-08-03T00:52:42.426Z,22.60
2018-08-03T00:55:10.637Z,22.60
2018-08-03T00:57:38.792Z,22.50
2018-08-03T01:00:06.995Z,22.50
2018-08-03T01:02:35.231Z,22.50
2018-08-03T01:05:03.687Z,22.40
2018-08-03T01:07:31.885Z,22.40
2018-08-03T01:10:00.093Z,22.40
2018-08-03T01:12:28.310Z,22.40
2018-08-03T01:14:56.561Z,22.50
2018-08-03T01:17:24.798Z,22.50
2018-08-03T01:19:53.017Z,22.50
2018-08-03T01:22:21.677Z,22.50
2018-08-03T01:24:50.008Z,22.50
2018-08-03T01:27:18.326Z,22.50
2018-08-03T01:29:46.515Z,22.50
2018-08-03T01:32:14.762Z,22.50
2018-08-03T01:34:42.996Z,22.50
2018-08-03T01:37:11.186Z,22.40
2018-08-03T01:39:40.098Z,22.30
2018-08-03T01:42:08.307Z,22.30
2018-08-03T01:44:36.965Z,22.20
2018-08-03T01:47:05.206Z,22.20
2018-08-03T01:49:33.415Z,22.10
2018-08-03T01:52:01.598Z,22.10
2018-08-03T01:54:31.583Z,22.10
2018-08-03T01:56:59.770Z,22.10
2018-08-03T01:59:28.001Z,22.20
2018-08-03T02:01:56.311Z,22.20
2018-08-03T02:04:24.534Z,22.30
2018-08-03T02:06:52.756Z,22.30
2018-08-03T02:09:20.978Z,22.20
2018-08-03T02:11:49.859Z,22.20
2018-08-03T02:14:18.110Z,22.20
2018-08-03T02:16:47.100Z,22.20
2018-08-03T02:19:15.467Z,22.20
2018-08-03T02:21:43.673Z,22.20
2018-08-03T02:24:11.932Z,22.30
2018-08-03T02:26:40.201Z,22.30
2018-08-03T02:29:08.396Z,22.50
2018-08-03T02:31:37.470Z,22.50
2018-08-03T02:34:05.936Z,22.40
2018-08-03T02:36:34.178Z,22.40
2018-08-03T02:39:02.405Z,22.30
2018-08-03T02:41:31.364Z,22.30
2018-08-03T02:44:00.054Z,22.20
2018-08-03T02:46:28.666Z,22.20
2018-08-03T02:48:56.907Z,22.10
2018-08-03T02:51:25.094Z,22.00
2018-08-03T02:53:53.338Z,21.80
2018-08-03T02:56:21.586Z,21.70
2018-08-03T02:58:49.838Z,21.60
2018-08-03T03:01:18.001Z,21.60
2018-08-03T03:03:46.237Z,21.70
2018-08-03T03:06:14.478Z,21.70
2018-08-03T03:08:42.707Z,21.70
2018-08-03T03:11:10.903Z,21.70
2018-08-03T03:13:39.143Z,21.70
2018-08-03T03:16:07.366Z,21.60
2018-08-03T03:18:35.578Z,21.50
2018-08-03T03:21:03.795Z,21.40
2018-08-03T03:23:31.999Z,21.30
2018-08-03T03:26:00.208Z,21.30
2018-08-03T03:28:28.422Z,21.20
2018-08-03T03:30:56.651Z,21.20
2018-08-03T03:33:24.899Z,21.20
2018-08-03T03:35:53.481Z,21.20
2018-08-03T03:38:21.685Z,21.20
2018-08-03T03:40:49.940Z,21.20
2018-08-03T03:43:18.175Z,21.20
2018-08-03T03:45:46.719Z,21.20
2018-08-03T03:48:14.907Z,21.10
2018-08-03T03:50:43.521Z,21.10
2018-08-03T03:53:12.257Z,21.10
2018-08-03T03:55:40.524Z,21.00
2018-08-03T03:58:08.757Z,21.00
2018-08-03T04:00:36.998Z,21.00
2018-08-03T04:03:05.265Z,21.00
2018-08-03T04:05:33.429Z,21.10
2018-08-03T04:08:01.632Z,21.20
2018-08-03T04:10:29.879Z,21.20
2018-08-03T04:12:58.161Z,21.20
2018-08-03T04:15:26.321Z,21.20
2018-08-03T04:17:54.518Z,21.20
2018-08-03T04:20:22.764Z,21.30
2018-08-03T04:22:50.943Z,21.30
2018-08-03T04:25:19.146Z,21.30
2018-08-03T04:27:47.391Z,21.30
2018-08-03T04:30:15.537Z,21.30
2018-08-03T04:32:43.741Z,21.30
2018-08-03T04:35:12.013Z,21.30
2018-08-03T04:37:40.226Z,21.30
2018-08-03T04:40:08.462Z,21.30
2018-08-03T04:42:36.734Z,21.40
2018-08-03T04:45:05.153Z,21.40
2018-08-03T04:47:33.314Z,21.50
2018-08-03T04:50:01.569Z,21.50
2018-08-03T04:52:29.742Z,21.60
2018-08-03T04:54:57.926Z,21.70
2018-08-03T04:57:26.166Z,21.70
2018-08-03T04:59:54.341Z,21.80
2018-08-03T05:02:22.493Z,21.90
2018-08-03T05:04:50.823Z,22.00
2018-08-03T05:07:19.401Z,22.10
2018-08-03T05:09:47.574Z,22.20
2018-08-03T05:12:15.770Z,22.30
2018-08-03T05:14:44.125Z,22.50
2018-08-03T05:17:12.300Z,22.90
2018-08-03T05:19:40.502Z,23.70
2018-08-03T05:22:08.693Z,24.60
2018-08-03T05:24:36.915Z,25.40
2018-08-03T05:27:05.392Z,26.20
2018-08-03T05:29:33.593Z,26.90
2018-08-03T05:32:01.815Z,27.70
2018-08-03T05:34:32.202Z,28.20
2018-08-03T05:37:00.389Z,28.60
2018-08-03T05:39:28.574Z,28.80
2018-08-03T05:41:56.804Z,29.00
2018-08-03T05:44:25.013Z,29.00
2018-08-03T05:46:53.175Z,28.80
2018-08-03T05:49:21.977Z,28.70
2018-08-03T05:51:50.159Z,28.90
2018-08-03T05:54:18.374Z,29.30
2018-08-03T05:56:46.566Z,29.70
2018-08-03T05:59:14.792Z,29.90
2018-08-03T06:01:43.062Z,30.20
2018-08-03T06:04:13.231Z,30.40
2018-08-03T06:06:41.719Z,30.60
2018-08-03T06:09:11.061Z,31.20
2018-08-03T06:11:39.293Z,31.40
2018-08-03T06:14:08.337Z,31.20
2018-08-03T06:16:36.802Z,31.30
2018-08-03T06:19:06.134Z,31.60
2018-08-03T06:21:34.354Z,32.20
2018-08-03T06:24:02.501Z,32.20
2018-08-03T06:26:30.647Z,32.50
2018-08-03T06:28:58.881Z,32.40
2018-08-03T06:31:27.138Z,31.90
2018-08-03T06:33:56.070Z,31.70
2018-08-03T06:36:24.855Z,32.10
2018-08-03T06:38:53.086Z,31.90
2018-08-03T06:41:21.261Z,31.40
2018-08-03T06:43:49.499Z,31.00
2018-08-03T06:46:17.778Z,30.90
2018-08-03T06:48:45.972Z,31.10
2018-08-03T06:51:14.149Z,31.50
2018-08-03T06:53:42.368Z,31.50
2018-08-03T06:56:11.137Z,31.30
2018-08-03T06:58:39.351Z,31.30
2018-08-03T07:01:07.741Z,31.10
2018-08-03T07:03:35.981Z,31.30
2018-08-03T07:06:04.142Z,31.40
2018-08-03T07:08:33.942Z,31.50
2018-08-03T07:11:02.086Z,31.50
2018-08-03T07:13:30.285Z,31.60
2018-08-03T07:15:58.457Z,31.50
2018-08-03T07:18:26.658Z,31.90
2018-08-03T07:20:55.249Z,32.30
2018-08-03T07:23:24.077Z,32.70
2018-08-03T07:25:52.566Z,33.20
2018-08-03T07:28:20.769Z,33.70
2018-08-03T07:30:49.014Z,33.60
2018-08-03T07:33:17.177Z,33.60
2018-08-03T07:35:45.561Z,33.70
2018-08-03T07:38:13.852Z,33.80
2018-08-03T07:40:42.046Z,34.20
2018-08-03T07:43:11.064Z,34.50
2018-08-03T07:45:39.195Z,34.90
2018-08-03T07:48:07.486Z,35.00
2018-08-03T07:50:36.054Z,35.60
2018-08-03T07:53:04.217Z,35.40
2018-08-03T07:55:32.406Z,35.10
2018-08-03T07:58:00.642Z,35.20
2018-08-03T08:00:28.808Z,35.00
2018-08-03T08:02:56.981Z,34.10
2018-08-03T08:05:25.198Z,34.10
2018-08-03T08:07:53.679Z,34.50
2018-08-03T08:10:21.838Z,34.70
2018-08-03T08:12:50.553Z,34.90
2018-08-03T08:15:18.753Z,35.20
2018-08-03T08:17:46.914Z,34.90
2018-08-03T08:20:15.650Z,35.00
2018-08-03T08:22:43.830Z,35.70
2018-08-03T08:25:11.990Z,35.90
2018-08-03T08:27:40.173Z,36.00
2018-08-03T08:30:08.746Z,36.30
2018-08-03T08:32:36.927Z,36.40
2018-08-03T08:35:05.509Z,36.60
2018-08-03T08:37:33.673Z,36.90
2018-08-03T08:40:01.849Z,36.90
2018-08-03T08:42:30.046Z,36.60
2018-08-03T08:44:58.277Z,36.00
2018-08-03T08:47:26.985Z,35.30
2018-08-03T08:49:56.410Z,35.40
2018-08-03T08:52:24.836Z,35.60
2018-08-03T08:54:53.607Z,35.70
2018-08-03T08:57:21.726Z,35.70
2018-08-03T08:59:49.955Z,35.80
2018-08-03T09:02:18.291Z,35.40
2018-08-03T09:04:46.970Z,35.10
2018-08-03T09:07:17.559Z,35.40
2018-08-03T09:09:45.699Z,36.20
2018-08-03T09:12:13.914Z,36.70
2018-08-03T09:14:42.093Z,36.60
2018-08-03T09:17:12.406Z,36.40
2018-08-03T09:19:40.593Z,36.50
2018-08-03T09:22:08.854Z,36.70
2018-08-03T09:24:37.040Z,37.40
2018-08-03T09:27:05.376Z,37.50
2018-08-03T09:29:33.591Z,37.90
2018-08-03T09:32:01.786Z,37.70
2018-08-03T09:34:30.012Z,37.10
2018-08-03T09:36:58.216Z,36.80
2018-08-03T09:39:26.453Z,37.00
2018-08-03T09:41:54.648Z,37.20
2018-08-03T09:44:23.359Z,37.30
2018-08-03T09:46:51.510Z,38.00
2018-08-03T09:49:19.724Z,38.20
2018-08-03T09:51:48.757Z,38.10
2018-08-03T09:54:17.442Z,38.10
2018-08-03T09:56:45.709Z,37.80
2018-08-03T09:59:13.862Z,37.10
2018-08-03T10:01:42.145Z,36.80
2018-08-03T10:04:10.299Z,37.30
2018-08-03T10:06:38.742Z,37.20
2018-08-03T10:09:07.650Z,37.10
2018-08-03T10:11:35.901Z,37.90
2018-08-03T10:14:04.849Z,38.30
2018-08-03T10:16:33.014Z,38.10
2018-08-03T10:19:01.238Z,37.60
2018-08-03T10:21:29.513Z,37.80
2018-08-03T10:23:57.734Z,37.70
2018-08-03T10:26:26.028Z,37.60
2018-08-03T10:28:54.507Z,37.80
2018-08-03T10:31:22.721Z,37.80
2018-08-03T10:33:51.142Z,37.70
2018-08-03T10:36:19.402Z,38.00
2018-08-03T10:38:47.590Z,38.90
2018-08-03T10:41:15.751Z,39.00
2018-08-03T10:43:44.058Z,38.70
2018-08-03T10:46:13.254Z,38.40
2018-08-03T10:48:41.470Z,37.80
2018-08-03T10:51:09.672Z,37.50
2018-08-03T10:53:37.834Z,37.20
2018-08-03T10:56:06.120Z,37.60
2018-08-03T10:58:34.392Z,37.60
2018-08-03T11:01:02.547Z,37.50
2018-08-03T11:03:31.538Z,37.50
2018-08-03T11:05:59.740Z,38.10
2018-08-03T11:10:55.843Z,38.60
2018-08-03T11:13:24.018Z,38.50
2018-08-03T11:15:53.488Z,38.20
2018-08-03T11:18:21.730Z,38.10
2018-08-03T11:20:49.924Z,38.30
2018-08-03T11:23:18.190Z,38.20
2018-08-03T11:25:46.449Z,38.70
2018-08-03T11:28:14.660Z,38.90
2018-08-03T11:30:42.830Z,39.20
2018-08-03T11:33:11.050Z,39.10
2018-08-03T11:35:39.265Z,38.90
2018-08-03T11:38:07.405Z,38.70
2018-08-03T11:40:35.622Z,38.60
2018-08-03T11:43:03.828Z,38.50
2018-08-03T11:45:32.099Z,38.50
2018-08-03T11:48:00.303Z,38.90
2018-08-03T11:50:28.517Z,39.10
2018-08-03T11:52:56.739Z,39.00
2018-08-03T11:55:25.026Z,38.50
2018-08-03T11:57:53.198Z,38.60
2018-08-03T12:00:21.430Z,38.80
2018-08-03T12:02:49.630Z,39.00
2018-08-03T12:05:17.801Z,38.80
2018-08-03T12:07:45.979Z,38.70
2018-08-03T12:10:14.189Z,39.10
2018-08-03T12:12:42.400Z,39.30
2018-08-03T12:15:10.597Z,38.70
2018-08-03T12:17:39.218Z,38.20
2018-08-03T12:20:07.410Z,37.90
2018-08-03T12:25:04.442Z,37.80
2018-08-03T12:27:32.641Z,38.30
2018-08-03T12:30:00.897Z,38.30
2018-08-03T12:32:30.194Z,38.40
2018-08-03T12:34:58.414Z,38.90
2018-08-03T12:37:26.613Z,39.20
2018-08-03T12:39:55.128Z,39.10
2018-08-03T12:42:23.907Z,38.90
2018-08-03T12:44:52.162Z,38.60
2018-08-03T12:47:20.381Z,38.60
2018-08-03T12:52:17.678Z,39.00
2018-08-03T12:54:45.922Z,39.20
2018-08-03T12:57:14.170Z,39.50
2018-08-03T12:59:42.439Z,39.20
2018-08-03T13:02:10.631Z,39.30
2018-08-03T13:04:38.882Z,39.10
2018-08-03T13:07:07.647Z,39.30
2018-08-03T13:09:35.824Z,39.00
2018-08-03T13:12:04.023Z,39.00
2018-08-03T13:14:32.651Z,39.00
2018-08-03T13:17:00.844Z,39.00
2018-08-03T13:19:29.054Z,39.00
2018-08-03T13:21:57.269Z,39.10
2018-08-03T13:24:25.526Z,39.20
2018-08-03T13:26:53.779Z,39.50
2018-08-03T13:29:22.082Z,39.80
2018-08-03T13:31:50.242Z,39.60
2018-08-03T13:34:18.461Z,39.60
2018-08-03T13:36:46.670Z,39.40
2018-08-03T13:39:14.890Z,39.50
2018-08-03T13:41:43.099Z,39.60
2018-08-03T13:44:11.288Z,40.40
2018-08-03T13:46:39.497Z,40.50
2018-08-03T13:49:07.724Z,40.20
2018-08-03T13:51:35.865Z,40.10
2018-08-03T13:54:04.341Z,40.10
2018-08-03T13:56:32.471Z,40.50
2018-08-03T13:59:00.713Z,40.90
2018-08-03T14:01:36.951Z,41.40
2018-08-03T14:04:05.376Z,41.80
2018-08-03T14:06:33.518Z,42.10
2018-08-03T14:09:01.750Z,42.20
2018-08-03T14:11:29.994Z,42.10
2018-08-03T14:13:58.178Z,42.30
2018-08-03T14:16:26.340Z,42.70
2018-08-03T14:18:54.539Z,43.40
2018-08-03T14:21:22.713Z,43.90
2018-08-03T14:23:50.869Z,44.50
2018-08-03T14:26:19.156Z,45.10
2018-08-03T14:28:47.362Z,45.20
2018-08-03T14:31:15.609Z,44.50
2018-08-03T14:33:43.786Z,43.70
2018-08-03T14:36:12.017Z,42.80
2018-08-03T14:38:41.671Z,42.50
2018-08-03T14:41:09.843Z,41.90
2018-08-03T14:43:38.079Z,41.50
2018-08-03T14:46:06.660Z,41.80
2018-08-03T14:48:34.885Z,41.70
2018-08-03T14:51:03.065Z,40.40
2018-08-03T14:53:31.258Z,39.10
2018-08-03T14:55:59.477Z,38.20
2018-08-03T14:58:27.711Z,37.60
2018-08-03T15:00:55.903Z,37.20
2018-08-03T15:03:24.130Z,36.90
2018-08-03T15:05:52.356Z,36.80
2018-08-03T15:08:20.514Z,36.50
2018-08-03T15:10:48.698Z,36.40
2018-08-03T15:13:17.442Z,36.40
2018-08-03T15:15:45.920Z,36.80
2018-08-03T15:18:14.096Z,38.10
2018-08-03T15:20:42.306Z,39.90
2018-08-03T15:23:10.502Z,41.10
2018-08-03T15:25:38.637Z,41.80
2018-08-03T15:28:06.824Z,42.20
2018-08-03T15:30:35.001Z,42.30
2018-08-03T15:33:03.297Z,42.30
2018-08-03T15:35:31.510Z,42.00
2018-08-03T15:37:59.691Z,41.30
2018-08-03T15:40:27.861Z,40.00
2018-08-03T17:08:34.593Z,36.80
2018-08-03T17:11:02.770Z,36.50
2018-08-03T17:13:30.997Z,36.80
2018-08-03T17:15:59.238Z,37.10
2018-08-03T17:18:27.429Z,37.20
2018-08-03T17:20:55.679Z,36.90
2018-08-03T17:23:23.868Z,36.50
2018-08-03T17:25:52.363Z,36.10
2018-08-03T17:28:20.593Z,35.80
2018-08-03T17:30:48.850Z,35.50
2018-08-03T17:33:17.044Z,35.10
2018-08-03T17:35:45.620Z,34.90
2018-08-03T17:38:13.814Z,34.70
2018-08-03T17:40:41.990Z,34.60
2018-08-03T17:43:10.238Z,34.40
2018-08-03T17:45:38.705Z,34.20
2018-08-03T17:48:07.169Z,34.00
2018-08-03T17:50:35.411Z,33.90
2018-08-03T17:53:03.568Z,33.70
2018-08-03T17:55:34.992Z,33.70
2018-08-03T17:58:03.360Z,33.50
2018-08-03T18:00:31.597Z,33.40
2018-08-03T18:02:59.853Z,33.30
2018-08-03T18:05:28.054Z,33.10
2018-08-03T18:07:56.279Z,33.00
2018-08-03T18:10:24.435Z,32.80
2018-08-03T18:12:52.649Z,32.70
2018-08-03T18:15:20.848Z,32.60
2018-08-03T18:17:49.005Z,32.40
2018-08-03T18:20:17.214Z,32.20
2018-08-03T18:22:45.427Z,32.10
2018-08-03T18:25:14.494Z,31.80
2018-08-03T18:27:42.732Z,31.60
2018-08-03T18:30:10.906Z,31.50
2018-08-03T18:32:39.150Z,31.20
2018-08-03T18:35:07.482Z,31.00
2018-08-03T18:37:35.754Z,30.80
2018-08-03T18:40:05.615Z,30.60
2018-08-03T18:42:33.894Z,30.50
2018-08-03T18:45:02.108Z,30.30
2018-08-03T18:47:30.405Z,30.00
2018-08-03T18:49:58.592Z,29.90
2018-08-03T18:52:26.810Z,29.60
2018-08-03T18:54:56.926Z,29.40
2018-08-03T18:59:53.049Z,29.10
2018-08-03T19:02:21.271Z,28.90
2018-08-03T19:04:49.446Z,28.70
2018-08-03T19:07:19.463Z,28.60
2018-08-03T19:09:47.768Z,28.40
2018-08-03T19:12:16.021Z,28.20
2018-08-03T19:14:44.218Z,28.00
2018-08-03T19:17:12.607Z,27.80
2018-08-03T19:19:40.844Z,27.60
2018-08-03T19:22:09.060Z,27.40
2018-08-03T19:24:37.281Z,27.20
2018-08-03T19:27:05.449Z,27.00
2018-08-03T19:29:33.649Z,26.90
2018-08-03T19:32:01.883Z,26.80
2018-08-03T19:34:30.109Z,26.70
2018-08-03T19:36:58.288Z,26.50
2018-08-03T19:39:26.467Z,26.30
2018-08-03T19:41:55.003Z,26.10
2018-08-03T19:46:51.170Z,25.90
2018-08-03T19:49:19.364Z,25.80
2018-08-03T19:51:47.596Z,25.70
2018-08-03T19:54:16.511Z,25.60
2018-08-03T19:56:45.545Z,25.50
2018-08-03T19:59:13.755Z,25.40
2018-08-03T20:01:41.970Z,25.30
2018-08-03T20:04:10.206Z,25.20
2018-08-03T20:06:38.771Z,25.00
2018-08-03T20:09:09.894Z,25.00
2018-08-03T20:11:38.221Z,24.90
2018-08-03T20:14:06.405Z,24.80
2018-08-03T20:16:34.613Z,24.80
2018-08-03T20:19:02.800Z,24.70
2018-08-03T20:21:31.720Z,24.70
2018-08-03T20:23:59.977Z,24.80
2018-08-03T20:26:28.182Z,24.80
2018-08-03T20:28:56.372Z,24.80
2018-08-03T20:31:24.585Z,24.70
2018-08-03T20:33:52.821Z,24.70
2018-08-03T20:36:21.166Z,24.70
2018-08-03T20:38:49.351Z,24.60
2018-08-03T20:43:45.517Z,24.50
2018-08-03T20:46:13.730Z,24.50
2018-08-03T20:48:41.906Z,24.40
2018-08-03T20:51:10.073Z,24.40
2018-08-03T20:53:38.228Z,24.30
2018-08-03T20:56:06.418Z,24.30
2018-08-03T20:58:34.626Z,24.20
2018-08-03T21:01:02.795Z,24.10
2018-08-03T21:03:31.353Z,24.00
2018-08-03T21:05:59.550Z,23.90
2018-08-03T21:08:27.771Z,23.90
2018-08-03T21:10:55.964Z,23.90
2018-08-03T21:13:24.358Z,23.80
2018-08-03T21:15:52.606Z,23.80
2018-08-03T21:18:20.812Z,23.70
2018-08-03T21:20:49.026Z,23.60
2018-08-03T21:23:17.237Z,23.40
2018-08-03T21:25:45.457Z,23.40
2018-08-03T21:28:13.684Z,23.30
2018-08-03T21:30:41.855Z,23.20
2018-08-03T21:33:10.410Z,23.20
2018-08-03T21:35:38.671Z,23.20
2018-08-03T21:38:06.885Z,23.20
2018-08-03T21:40:35.074Z,23.20
2018-08-03T21:43:03.333Z,23.30
2018-08-03T21:45:31.514Z,23.20
2018-08-03T21:47:59.806Z,23.20
2018-08-03T21:50:28.051Z,23.20
2018-08-03T21:52:56.221Z,23.20
2018-08-03T21:55:25.397Z,23.10
2018-08-03T21:57:53.541Z,23.20
2018-08-03T22:00:22.784Z,23.30
2018-08-03T22:02:50.967Z,23.50
2018-08-03T22:07:47.898Z,23.80
2018-08-03T22:10:16.212Z,23.90
2018-08-03T22:12:44.398Z,24.00
2018-08-03T22:15:12.598Z,24.10
2018-08-03T22:17:40.853Z,24.10
2018-08-03T22:20:09.369Z,24.20
2018-08-03T22:22:38.419Z,24.10
2018-08-03T22:25:06.641Z,24.10
2018-08-03T22:27:35.681Z,24.10
2018-08-03T22:30:04.514Z,24.00
2018-08-03T22:32:32.759Z,24.00
2018-08-03T22:35:02.735Z,23.90
2018-08-03T22:37:30.929Z,23.90
2018-08-03T22:39:59.129Z,23.90
2018-08-03T22:42:30.785Z,23.90
2018-08-03T22:44:59.013Z,23.80
2018-08-03T22:47:27.184Z,23.80
2018-08-03T22:49:55.356Z,23.80
2018-08-03T22:52:23.564Z,23.90
2018-08-03T22:54:52.665Z,23.90
2018-08-03T22:57:24.225Z,23.90
2018-08-03T22:59:52.452Z,23.80
2018-08-03T23:02:20.957Z,23.80
2018-08-03T23:04:49.153Z,23.80
2018-08-03T23:07:17.385Z,23.70
2018-08-03T23:09:45.569Z,23.70
2018-08-03T23:12:13.774Z,23.60
2018-08-03T23:14:41.951Z,23.60
2018-08-03T23:17:10.114Z,23.60
2018-08-03T23:19:38.333Z,23.60
2018-08-03T23:22:07.095Z,23.50
2018-08-03T23:24:35.293Z,23.50
2018-08-03T23:27:03.552Z,23.40
2018-08-03T23:29:31.741Z,23.40
2018-08-03T23:31:59.879Z,23.30
2018-08-03T23:34:28.061Z,23.10
2018-08-03T23:36:56.258Z,22.90
2018-08-03T23:39:24.437Z,22.70
2018-08-03T23:41:52.602Z,22.50
2018-08-03T23:44:20.867Z,22.40
2018-08-03T23:46:49.057Z,22.20
2018-08-03T23:49:17.266Z,22.10
2018-08-03T23:51:45.507Z,22.00
2018-08-03T23:54:13.693Z,21.90
2018-08-03T23:56:41.882Z,21.80
2018-08-03T23:59:10.081Z,21.70
